Airfield :
LOGIN :

Register | Disclaimer

   EN    FR    IT 

 










Legend :    VFR   Marginal VFR   IFR   Intensive IFR   Very Intensive IFR
Visi :
Ceiling :
>= 8 km
>= 3000ft
5 to 8 km
1000 to 3000 ft
1500m to 5 km
500 to 1000 ft
800 to 1500m
200 to 500 ft
< 800m
< 200 ft
Symbols :   Thunderstorms  Fog  Heavy snow  Heavy precipitations  Wind > 20 kt
SIGMETs :     Misc.  Thunderstorms  Icing  Turbulence  Mountain Waves  Volcanic Ashes






- Airport Elevation : -13 ft
- IATA code : LEY


EHLE - Lelystad

CURRENT METAR :
  • 100325Z AUTO 07007KT 9999 NSC 05/03 Q1028

EXPIRED METARs :
  • 100255Z AUTO 07006KT 9999 NSC 04/03 Q1028
  • 100225Z AUTO 06006KT 9999 NSC 05/03 Q1028
  • 100155Z AUTO 06008KT 9999 NSC 05/03 Q1028
  • 100125Z AUTO 07009KT 9999 NSC 05/03 Q1028
  • 100055Z AUTO 07008KT 030V090 9999 NSC 06/03 Q1028
  • 100025Z AUTO 06009KT 9999 NSC 06/03 Q1028

TAF TAF EHLE
Valid from the 10 at 00:00 until the 11 at 06:00 UTC


092310Z 1000/1106 07009KT CAVOK
PROB30 1001/1006 5000 BR
BECMG 1020/1023 11006KT



MET'MAP, your aeronautical weather chart ! - Copyright ORBIFLY December 2007 - Disclaimer

ORBIFLY MET'MAP TEAM :

Programming & Development : Alexandra Zaïnal
Concept & original design : Baudouin d'Aumeries
Assistance for programming : Marc-Olivier Méhu
Technical & hardware support : Manuel Goepfert

Contact : metmap@orbifly.com




SOURCES & CREDITS :

   NOAA